createdAt,value
2023-04-02T00:01:52.962Z,1.00
2023-04-02T00:07:31.149Z,0.80
2023-04-02T00:12:34.637Z,1.10
2023-04-02T00:17:38.255Z,1.30
2023-04-02T00:22:45.280Z,1.60
2023-04-02T00:27:49.096Z,1.50
2023-04-02T00:32:53.031Z,1.40
2023-04-02T00:37:57.957Z,1.40
2023-04-02T00:43:04.673Z,1.80
2023-04-02T00:48:25.573Z,1.70
2023-04-02T00:53:31.244Z,1.60
2023-04-02T00:58:37.004Z,1.80
2023-04-02T01:03:41.545Z,2.00
2023-04-02T01:09:21.613Z,1.90
2023-04-02T01:14:43.353Z,1.50
2023-04-02T01:20:01.212Z,1.40
2023-04-02T01:25:06.708Z,1.50
2023-04-02T01:30:12.945Z,1.10
2023-04-02T01:35:16.765Z,3.20
2023-04-02T01:40:26.022Z,2.30
2023-04-02T01:45:29.945Z,2.90
2023-04-02T01:50:39.407Z,2.70
2023-04-02T01:55:57.050Z,2.70
2023-04-02T02:01:04.415Z,3.00
2023-04-02T02:06:13.905Z,3.40
2023-04-02T02:11:23.140Z,4.10
2023-04-02T02:16:29.406Z,3.70
2023-04-02T02:21:43.817Z,3.50
2023-04-02T02:26:51.227Z,3.20
2023-04-02T02:31:58.191Z,3.60
2023-04-02T02:37:35.963Z,3.50
2023-04-02T02:42:47.229Z,3.10
2023-04-02T02:47:53.231Z,3.50
2023-04-02T02:52:59.480Z,2.80
2023-04-02T02:58:10.473Z,2.20
2023-04-02T03:03:20.318Z,2.60
2023-04-02T03:08:37.087Z,2.40
2023-04-02T03:13:46.914Z,1.90
2023-04-02T03:19:08.864Z,2.50
2023-04-02T03:24:15.054Z,2.40
2023-04-02T03:29:28.342Z,2.70
2023-04-02T03:34:37.340Z,2.30
2023-04-02T03:39:59.086Z,2.20
2023-04-02T03:45:02.393Z,2.20
2023-04-02T03:50:14.713Z,1.70
2023-04-02T03:55:31.568Z,3.30
2023-04-02T04:00:37.615Z,2.40
2023-04-02T04:05:52.094Z,3.00
2023-04-02T04:16:08.466Z,2.40
2023-04-02T04:21:37.939Z,2.60
2023-04-02T04:27:18.761Z,2.60
2023-04-02T04:32:34.430Z,1.90
2023-04-02T04:37:43.134Z,2.10
2023-04-02T04:42:49.903Z,3.20
2023-04-02T04:48:09.371Z,3.00
2023-04-02T04:53:24.936Z,3.50
2023-04-02T04:58:45.996Z,2.10
2023-04-02T05:03:55.052Z,2.70
2023-04-02T05:09:07.065Z,2.70
2023-04-02T05:14:25.110Z,2.60
2023-04-02T05:19:46.659Z,2.30
2023-04-02T05:25:27.501Z,2.20
2023-04-02T05:30:47.140Z,2.40
2023-04-02T06:06:42.318Z,1.90
2023-04-02T06:11:57.142Z,1.80
2023-04-02T06:23:40.790Z,1.30
2023-04-02T06:29:02.815Z,1.90
2023-04-02T06:34:13.471Z,1.10
2023-04-02T06:39:23.578Z,1.80
2023-04-02T06:44:32.492Z,2.10
2023-04-02T06:49:45.627Z,2.00
2023-04-02T06:54:48.975Z,2.30
2023-04-02T06:59:52.765Z,2.20
2023-04-02T07:05:03.358Z,1.30
2023-04-02T07:10:09.402Z,2.10
2023-04-02T07:15:24.321Z,2.10
2023-04-02T07:20:38.557Z,1.70
2023-04-02T07:25:42.177Z,2.60
2023-04-02T07:30:46.410Z,1.80
2023-04-02T07:35:50.658Z,2.30
2023-04-02T07:45:57.470Z,3.50
2023-04-02T07:51:03.418Z,2.70
2023-04-02T07:56:07.976Z,2.10
2023-04-02T08:01:26.140Z,2.10
2023-04-02T08:06:30.582Z,1.70
2023-04-02T08:16:52.134Z,3.00
2023-04-02T08:21:56.702Z,2.80
2023-04-02T08:27:00.027Z,1.90
2023-04-02T08:32:03.726Z,2.80
2023-04-02T08:37:07.138Z,3.00
2023-04-02T08:42:13.833Z,2.60
2023-04-02T08:47:20.730Z,2.40
2023-04-02T08:52:29.069Z,4.80
2023-04-02T08:57:56.835Z,5.30
2023-04-02T09:03:11.249Z,2.60
2023-04-02T09:13:28.864Z,2.50
2023-04-02T09:18:33.636Z,3.40
2023-04-02T09:23:37.145Z,3.30
2023-04-02T09:28:41.991Z,4.20
2023-04-02T09:33:49.235Z,2.60
2023-04-02T09:39:20.671Z,3.50
2023-04-02T09:44:31.477Z,2.90
2023-04-02T09:49:38.204Z,3.60
2023-04-02T09:54:44.637Z,2.70
2023-04-02T09:59:48.157Z,3.90
2023-04-02T10:04:52.066Z,3.50
2023-04-02T10:10:00.642Z,3.40
2023-04-02T10:15:04.967Z,2.80
2023-04-02T10:25:42.756Z,1.90
2023-04-02T10:31:08.547Z,2.10
2023-04-02T10:36:41.336Z,3.10
2023-04-02T10:41:47.811Z,3.50
2023-04-02T10:47:21.952Z,2.00
2023-04-02T10:52:35.703Z,2.10
2023-04-02T10:57:43.661Z,1.60
2023-04-02T11:03:31.925Z,1.70
2023-04-02T11:08:46.970Z,1.60
2023-04-02T11:13:56.733Z,2.20
2023-04-02T11:19:15.098Z,1.20
2023-04-02T11:24:24.347Z,1.50
2023-04-02T11:29:31.039Z,1.50
2023-04-02T11:35:02.922Z,0.90
2023-04-02T11:40:12.034Z,2.60
2023-04-02T11:45:22.165Z,1.40
2023-04-02T11:50:31.907Z,1.50
2023-04-02T11:55:36.724Z,1.40
2023-04-02T12:01:18.767Z,0.90
2023-04-02T12:06:35.383Z,0.60
2023-04-02T12:11:41.011Z,0.90
2023-04-02T12:16:44.640Z,2.10
2023-04-02T12:21:48.795Z,2.30
2023-04-02T12:27:17.423Z,1.40
2023-04-02T12:32:31.261Z,0.80
2023-04-02T12:37:34.871Z,0.70
2023-04-02T12:42:38.391Z,1.40
2023-04-02T12:47:45.661Z,1.90
2023-04-02T12:52:55.199Z,0.70
2023-04-02T12:58:00.101Z,0.60
2023-04-02T13:03:06.322Z,0.90
2023-04-02T13:08:23.007Z,0.80
2023-04-02T13:13:34.920Z,1.60
2023-04-02T13:18:39.055Z,0.70
2023-04-02T13:23:42.971Z,1.10
2023-04-02T13:29:02.271Z,0.50
2023-04-02T13:34:05.670Z,0.50
2023-04-02T13:39:09.287Z,0.80
2023-04-02T13:44:33.213Z,0.60
2023-04-02T13:49:36.595Z,0.70
2023-04-02T13:54:51.986Z,1.80
2023-04-02T13:59:55.812Z,0.60
2023-04-02T14:05:14.391Z,1.00
2023-04-02T14:10:34.389Z,1.70
2023-04-02T14:15:38.137Z,0.60
2023-04-02T14:20:44.495Z,0.90
2023-04-02T14:26:14.113Z,1.30
2023-04-02T14:31:35.476Z,1.00
2023-04-02T14:37:07.162Z,1.60
2023-04-02T14:42:16.887Z,1.20
2023-04-02T14:47:29.834Z,1.60
2023-04-02T14:52:35.485Z,1.10
2023-04-02T14:57:45.046Z,0.80
2023-04-02T15:03:04.530Z,1.90
2023-04-02T15:08:15.949Z,1.90
2023-04-02T15:13:25.565Z,0.60
2023-04-02T15:18:33.212Z,1.20
2023-04-02T15:24:04.057Z,1.50
2023-04-02T15:29:28.770Z,0.90
2023-04-02T15:35:21.423Z,1.50
2023-04-02T15:40:36.328Z,1.20
2023-04-02T15:46:01.398Z,1.20
2023-04-02T15:51:23.189Z,0.80
2023-04-02T15:56:35.211Z,2.00
2023-04-02T16:02:02.985Z,1.30
2023-04-02T16:07:31.285Z,1.20
2023-04-02T16:12:37.268Z,1.50
2023-04-02T16:17:47.254Z,1.30
2023-04-02T16:23:24.975Z,2.00
2023-04-02T16:28:36.033Z,1.40
2023-04-02T16:34:34.130Z,1.60
2023-04-02T16:49:25.772Z,1.00
2023-04-02T16:55:23.694Z,1.10
2023-04-02T17:00:38.159Z,1.80
2023-04-02T17:05:59.961Z,3.20
2023-04-02T17:11:07.079Z,1.70
2023-04-02T17:16:28.872Z,1.30
2023-04-02T17:21:32.946Z,1.10
2023-04-02T17:26:38.136Z,1.20
2023-04-02T17:31:46.127Z,1.90
2023-04-02T17:36:56.262Z,1.50
2023-04-02T17:42:20.767Z,2.10
2023-04-02T17:47:35.160Z,1.50
2023-04-02T18:05:15.802Z,1.90
2023-04-02T18:11:14.842Z,1.90
2023-04-02T18:16:30.032Z,2.10
2023-04-02T18:21:46.669Z,2.10
2023-04-02T18:27:11.142Z,2.10
2023-04-02T18:32:59.145Z,2.80
2023-04-02T18:38:20.979Z,2.20
2023-04-02T18:43:43.726Z,2.10
2023-04-02T18:49:00.441Z,2.10
2023-04-02T18:54:13.886Z,1.30
2023-04-02T18:59:42.181Z,1.60
2023-04-02T19:04:53.618Z,1.90
2023-04-02T19:10:09.599Z,2.30
2023-04-02T19:15:20.408Z,2.40
2023-04-02T19:20:53.276Z,1.70
2023-04-02T19:26:08.984Z,2.70
2023-04-02T19:31:16.214Z,1.80
2023-04-02T19:36:24.113Z,2.00
2023-04-02T19:41:44.312Z,1.80
2023-04-02T19:46:48.148Z,1.60
2023-04-02T19:51:52.180Z,1.90
2023-04-02T19:56:55.987Z,2.10
2023-04-02T20:01:59.495Z,1.70
2023-04-02T20:07:03.176Z,2.40
2023-04-02T20:12:06.731Z,2.20
2023-04-02T20:17:10.049Z,3.20
2023-04-02T20:22:13.360Z,1.50
2023-04-02T20:27:17.175Z,1.60
2023-04-02T20:32:20.561Z,1.70
2023-04-02T20:37:24.248Z,1.10
2023-04-02T20:42:27.929Z,2.30
2023-04-02T20:47:31.266Z,2.30
2023-04-02T20:52:36.092Z,4.20
2023-04-02T20:57:39.914Z,2.50
2023-04-02T21:02:43.238Z,2.90
2023-04-02T21:07:48.887Z,1.40
2023-04-02T21:12:52.200Z,1.70
2023-04-02T21:17:55.720Z,2.10
2023-04-02T21:22:59.442Z,1.80
2023-04-02T21:28:02.845Z,3.60
2023-04-02T21:33:06.802Z,2.80
2023-04-02T21:38:10.183Z,2.40
2023-04-02T21:43:13.691Z,1.90
2023-04-02T21:48:17.208Z,2.10
2023-04-02T21:53:20.734Z,1.80
2023-04-02T21:58:24.138Z,2.40
2023-04-02T22:03:31.737Z,2.00
2023-04-02T22:08:36.493Z,3.00
2023-04-02T22:18:44.512Z,2.60
2023-04-02T22:28:53.322Z,1.80
2023-04-02T22:33:58.061Z,2.10
2023-04-02T22:39:05.690Z,1.70
2023-04-02T22:44:14.584Z,1.80
2023-04-02T22:49:19.673Z,3.20
2023-04-02T22:54:23.185Z,2.90
2023-04-02T22:59:26.906Z,3.10
2023-04-02T23:04:30.318Z,0.80
2023-04-02T23:09:33.832Z,1.50
2023-04-02T23:14:37.249Z,1.90
2023-04-02T23:19:40.975Z,2.10
2023-04-02T23:24:44.383Z,2.40
2023-04-02T23:29:49.028Z,1.30
2023-04-02T23:34:52.439Z,1.50
2023-04-02T23:39:55.953Z,1.20
2023-04-02T23:44:59.572Z,2.70
2023-04-02T23:50:03.409Z,2.00
2023-04-02T23:55:07.332Z,1.90
